sensor_id;sensor_type;location;lat;lon;timestamp;temperature;humidity
78876;DHT22;68253;52.506;5.486;2023-04-06T00:02:16;4.70;59.50
78876;DHT22;68253;52.506;5.486;2023-04-06T00:04:42;4.70;59.70
78876;DHT22;68253;52.506;5.486;2023-04-06T00:07:08;4.70;59.70
78876;DHT22;68253;52.506;5.486;2023-04-06T00:09:34;4.70;59.80
78876;DHT22;68253;52.506;5.486;2023-04-06T00:12:00;4.60;59.90
78876;DHT22;68253;52.506;5.486;2023-04-06T00:14:27;4.50;60.00
78876;DHT22;68253;52.506;5.486;2023-04-06T00:16:53;4.50;60.00
78876;DHT22;68253;52.506;5.486;2023-04-06T00:19:19;4.50;60.00
78876;DHT22;68253;52.506;5.486;2023-04-06T00:21:45;4.40;60.10
78876;DHT22;68253;52.506;5.486;2023-04-06T00:24:11;4.40;60.20
78876;DHT22;68253;52.506;5.486;2023-04-06T00:26:37;4.30;60.30
78876;DHT22;68253;52.506;5.486;2023-04-06T00:29:03;4.30;60.30
78876;DHT22;68253;52.506;5.486;2023-04-06T00:31:29;4.20;60.50
78876;DHT22;68253;52.506;5.486;2023-04-06T00:33:56;4.20;60.50
78876;DHT22;68253;52.506;5.486;2023-04-06T00:36:22;4.20;60.50
78876;DHT22;68253;52.506;5.486;2023-04-06T00:38:48;4.10;60.60
78876;DHT22;68253;52.506;5.486;2023-04-06T00:41:14;4.10;60.70
78876;DHT22;68253;52.506;5.486;2023-04-06T00:43:40;4.10;60.70
78876;DHT22;68253;52.506;5.486;2023-04-06T00:46:07;4.10;60.70
78876;DHT22;68253;52.506;5.486;2023-04-06T00:48:33;4.10;60.70
78876;DHT22;68253;52.506;5.486;2023-04-06T00:51:00;4.00;60.80
78876;DHT22;68253;52.506;5.486;2023-04-06T00:53:27;4.00;60.80
78876;DHT22;68253;52.506;5.486;2023-04-06T00:55:53;4.00;60.90
78876;DHT22;68253;52.506;5.486;2023-04-06T00:58:21;4.00;60.90
78876;DHT22;68253;52.506;5.486;2023-04-06T01:00:52;3.90;61.10
78876;DHT22;68253;52.506;5.486;2023-04-06T01:03:21;3.90;61.10
78876;DHT22;68253;52.506;5.486;2023-04-06T01:05:47;3.90;61.00
78876;DHT22;68253;52.506;5.486;2023-04-06T01:08:19;3.80;61.00
78876;DHT22;68253;52.506;5.486;2023-04-06T01:10:46;3.80;61.10
78876;DHT22;68253;52.506;5.486;2023-04-06T01:13:22;3.70;61.20
78876;DHT22;68253;52.506;5.486;2023-04-06T01:15:54;3.70;61.50
78876;DHT22;68253;52.506;5.486;2023-04-06T01:18:28;3.60;61.50
78876;DHT22;68253;52.506;5.486;2023-04-06T01:21:12;3.60;61.50
78876;DHT22;68253;52.506;5.486;2023-04-06T01:23:46;3.60;61.50
78876;DHT22;68253;52.506;5.486;2023-04-06T01:26:19;3.60;61.40
78876;DHT22;68253;52.506;5.486;2023-04-06T01:28:45;3.60;61.40
78876;DHT22;68253;52.506;5.486;2023-04-06T01:31:23;3.60;61.20
78876;DHT22;68253;52.506;5.486;2023-04-06T01:33:51;3.60;61.00
78876;DHT22;68253;52.506;5.486;2023-04-06T01:36:21;3.70;61.00
78876;DHT22;68253;52.506;5.486;2023-04-06T01:38:53;3.70;60.90
78876;DHT22;68253;52.506;5.486;2023-04-06T01:41:24;3.70;61.00
78876;DHT22;68253;52.506;5.486;2023-04-06T01:43:52;3.70;61.00
78876;DHT22;68253;52.506;5.486;2023-04-06T01:46:22;3.70;61.10
78876;DHT22;68253;52.506;5.486;2023-04-06T01:48:48;3.80;61.10
78876;DHT22;68253;52.506;5.486;2023-04-06T01:51:44;3.80;61.00
78876;DHT22;68253;52.506;5.486;2023-04-06T01:54:12;3.90;60.90
78876;DHT22;68253;52.506;5.486;2023-04-06T01:56:51;3.80;61.00
78876;DHT22;68253;52.506;5.486;2023-04-06T01:59:38;3.90;61.00
78876;DHT22;68253;52.506;5.486;2023-04-06T02:02:11;3.90;60.90
78876;DHT22;68253;52.506;5.486;2023-04-06T02:04:39;3.90;60.90
78876;DHT22;68253;52.506;5.486;2023-04-06T02:07:10;3.90;60.80
78876;DHT22;68253;52.506;5.486;2023-04-06T02:09:36;3.90;61.00
78876;DHT22;68253;52.506;5.486;2023-04-06T02:12:05;3.90;61.00
78876;DHT22;68253;52.506;5.486;2023-04-06T02:14:33;3.90;61.00
78876;DHT22;68253;52.506;5.486;2023-04-06T02:17:00;3.90;61.10
78876;DHT22;68253;52.506;5.486;2023-04-06T02:19:26;3.90;61.10
78876;DHT22;68253;52.506;5.486;2023-04-06T02:21:53;3.90;61.10
78876;DHT22;68253;52.506;5.486;2023-04-06T02:24:19;4.00;61.00
78876;DHT22;68253;52.506;5.486;2023-04-06T02:26:45;4.00;61.00
78876;DHT22;68253;52.506;5.486;2023-04-06T02:29:11;4.00;61.00
78876;DHT22;68253;52.506;5.486;2023-04-06T02:31:38;4.00;61.00
78876;DHT22;68253;52.506;5.486;2023-04-06T02:34:05;4.10;61.10
78876;DHT22;68253;52.506;5.486;2023-04-06T02:36:33;4.10;61.00
78876;DHT22;68253;52.506;5.486;2023-04-06T02:38:59;4.10;61.00
78876;DHT22;68253;52.506;5.486;2023-04-06T02:41:28;4.10;61.00
78876;DHT22;68253;52.506;5.486;2023-04-06T02:43:55;4.10;60.90
78876;DHT22;68253;52.506;5.486;2023-04-06T02:46:34;4.20;61.00
78876;DHT22;68253;52.506;5.486;2023-04-06T02:49:02;4.10;60.90
78876;DHT22;68253;52.506;5.486;2023-04-06T02:51:31;4.20;60.80
78876;DHT22;68253;52.506;5.486;2023-04-06T02:54:08;4.20;60.80
78876;DHT22;68253;52.506;5.486;2023-04-06T02:56:34;4.20;60.70
78876;DHT22;68253;52.506;5.486;2023-04-06T02:59:00;4.20;60.70
78876;DHT22;68253;52.506;5.486;2023-04-06T03:01:30;4.30;60.80
78876;DHT22;68253;52.506;5.486;2023-04-06T03:03:59;4.30;60.70
78876;DHT22;68253;52.506;5.486;2023-04-06T03:06:27;4.30;60.60
78876;DHT22;68253;52.506;5.486;2023-04-06T03:08:58;4.30;60.40
78876;DHT22;68253;52.506;5.486;2023-04-06T03:11:24;4.40;60.30
78876;DHT22;68253;52.506;5.486;2023-04-06T03:13:52;4.40;60.50
78876;DHT22;68253;52.506;5.486;2023-04-06T03:16:18;4.40;60.50
78876;DHT22;68253;52.506;5.486;2023-04-06T03:18:44;4.40;60.50
78876;DHT22;68253;52.506;5.486;2023-04-06T03:21:13;4.40;60.60
78876;DHT22;68253;52.506;5.486;2023-04-06T03:23:46;4.40;60.40
78876;DHT22;68253;52.506;5.486;2023-04-06T03:26:12;4.40;60.50
78876;DHT22;68253;52.506;5.486;2023-04-06T03:28:38;4.40;60.50
78876;DHT22;68253;52.506;5.486;2023-04-06T03:31:06;4.40;60.60
78876;DHT22;68253;52.506;5.486;2023-04-06T03:33:50;4.40;60.60
78876;DHT22;68253;52.506;5.486;2023-04-06T03:36:22;4.40;60.40
78876;DHT22;68253;52.506;5.486;2023-04-06T03:38:48;4.40;60.40
78876;DHT22;68253;52.506;5.486;2023-04-06T03:41:14;4.40;60.50
78876;DHT22;68253;52.506;5.486;2023-04-06T03:43:46;4.40;60.50
78876;DHT22;68253;52.506;5.486;2023-04-06T03:46:13;4.40;60.40
78876;DHT22;68253;52.506;5.486;2023-04-06T03:48:39;4.40;60.30
78876;DHT22;68253;52.506;5.486;2023-04-06T03:51:06;4.40;60.00
78876;DHT22;68253;52.506;5.486;2023-04-06T03:53:32;4.40;60.10
78876;DHT22;68253;52.506;5.486;2023-04-06T03:55:58;4.40;60.00
78876;DHT22;68253;52.506;5.486;2023-04-06T03:58:24;4.40;60.20
78876;DHT22;68253;52.506;5.486;2023-04-06T04:00:52;4.40;60.10
78876;DHT22;68253;52.506;5.486;2023-04-06T04:03:18;4.40;60.10
78876;DHT22;68253;52.506;5.486;2023-04-06T04:05:44;4.40;60.30
78876;DHT22;68253;52.506;5.486;2023-04-06T04:08:11;4.50;60.30
78876;DHT22;68253;52.506;5.486;2023-04-06T04:10:37;4.40;60.20
78876;DHT22;68253;52.506;5.486;2023-04-06T04:13:03;4.40;60.10
78876;DHT22;68253;52.506;5.486;2023-04-06T04:15:30;4.40;60.10
78876;DHT22;68253;52.506;5.486;2023-04-06T04:17:56;4.40;60.00
78876;DHT22;68253;52.506;5.486;2023-04-06T04:20:22;4.40;59.70
78876;DHT22;68253;52.506;5.486;2023-04-06T04:22:49;4.40;59.80
78876;DHT22;68253;52.506;5.486;2023-04-06T04:25:15;4.40;59.70
78876;DHT22;68253;52.506;5.486;2023-04-06T04:27:46;4.40;59.70
78876;DHT22;68253;52.506;5.486;2023-04-06T04:30:13;4.40;59.60
78876;DHT22;68253;52.506;5.486;2023-04-06T04:32:39;4.40;59.70
78876;DHT22;68253;52.506;5.486;2023-04-06T04:35:08;4.40;59.60
78876;DHT22;68253;52.506;5.486;2023-04-06T04:37:37;4.30;59.50
78876;DHT22;68253;52.506;5.486;2023-04-06T04:40:04;4.30;59.40
78876;DHT22;68253;52.506;5.486;2023-04-06T04:42:38;4.30;59.30
78876;DHT22;68253;52.506;5.486;2023-04-06T04:45:07;4.30;59.20
78876;DHT22;68253;52.506;5.486;2023-04-06T04:47:37;4.30;59.20
78876;DHT22;68253;52.506;5.486;2023-04-06T04:50:05;4.30;59.10
78876;DHT22;68253;52.506;5.486;2023-04-06T04:52:31;4.30;59.00
78876;DHT22;68253;52.506;5.486;2023-04-06T04:55:10;4.30;59.10
78876;DHT22;68253;52.506;5.486;2023-04-06T04:57:36;4.30;59.20
78876;DHT22;68253;52.506;5.486;2023-04-06T05:00:05;4.30;59.20
78876;DHT22;68253;52.506;5.486;2023-04-06T05:02:32;4.30;59.30
78876;DHT22;68253;52.506;5.486;2023-04-06T05:05:11;4.30;59.10
78876;DHT22;68253;52.506;5.486;2023-04-06T05:07:39;4.30;59.00
78876;DHT22;68253;52.506;5.486;2023-04-06T05:10:08;4.30;59.00
78876;DHT22;68253;52.506;5.486;2023-04-06T05:12:40;4.30;58.90
78876;DHT22;68253;52.506;5.486;2023-04-06T05:15:08;4.30;58.70
78876;DHT22;68253;52.506;5.486;2023-04-06T05:17:35;4.30;58.70
78876;DHT22;68253;52.506;5.486;2023-04-06T05:20:02;4.30;58.70
78876;DHT22;68253;52.506;5.486;2023-04-06T05:22:30;4.30;58.80
78876;DHT22;68253;52.506;5.486;2023-04-06T05:25:08;4.30;58.90
78876;DHT22;68253;52.506;5.486;2023-04-06T05:27:34;4.30;59.00
78876;DHT22;68253;52.506;5.486;2023-04-06T05:30:07;4.30;59.00
78876;DHT22;68253;52.506;5.486;2023-04-06T05:32:38;4.40;59.00
78876;DHT22;68253;52.506;5.486;2023-04-06T05:35:05;4.40;59.10
78876;DHT22;68253;52.506;5.486;2023-04-06T05:37:31;4.40;59.00
78876;DHT22;68253;52.506;5.486;2023-04-06T05:39:58;4.50;59.00
78876;DHT22;68253;52.506;5.486;2023-04-06T05:42:25;4.50;58.90
78876;DHT22;68253;52.506;5.486;2023-04-06T05:44:55;4.70;58.90
78876;DHT22;68253;52.506;5.486;2023-04-06T05:47:21;4.70;58.80
78876;DHT22;68253;52.506;5.486;2023-04-06T05:49:53;4.90;58.70
78876;DHT22;68253;52.506;5.486;2023-04-06T05:52:29;4.90;58.50
78876;DHT22;68253;52.506;5.486;2023-04-06T05:54:55;5.00;58.40
78876;DHT22;68253;52.506;5.486;2023-04-06T05:57:23;5.00;58.20
78876;DHT22;68253;52.506;5.486;2023-04-06T05:59:50;5.10;57.80
78876;DHT22;68253;52.506;5.486;2023-04-06T06:02:16;5.20;57.70
78876;DHT22;68253;52.506;5.486;2023-04-06T06:04:46;5.30;57.70
78876;DHT22;68253;52.506;5.486;2023-04-06T06:07:14;5.40;57.60
78876;DHT22;68253;52.506;5.486;2023-04-06T06:09:45;5.50;57.40
78876;DHT22;68253;52.506;5.486;2023-04-06T06:12:22;5.60;57.30
78876;DHT22;68253;52.506;5.486;2023-04-06T06:14:49;5.70;56.80
78876;DHT22;68253;52.506;5.486;2023-04-06T06:17:16;5.80;56.60
78876;DHT22;68253;52.506;5.486;2023-04-06T06:19:45;5.90;56.50
78876;DHT22;68253;52.506;5.486;2023-04-06T06:22:11;6.00;56.20
78876;DHT22;68253;52.506;5.486;2023-04-06T06:24:40;6.00;55.80
78876;DHT22;68253;52.506;5.486;2023-04-06T06:27:07;6.10;55.80
78876;DHT22;68253;52.506;5.486;2023-04-06T06:29:34;6.10;55.80
78876;DHT22;68253;52.506;5.486;2023-04-06T06:32:01;6.20;55.80
78876;DHT22;68253;52.506;5.486;2023-04-06T06:34:27;6.30;55.80
78876;DHT22;68253;52.506;5.486;2023-04-06T06:36:56;6.30;55.90
78876;DHT22;68253;52.506;5.486;2023-04-06T06:39:22;6.50;55.80
78876;DHT22;68253;52.506;5.486;2023-04-06T06:41:50;6.60;55.90
78876;DHT22;68253;52.506;5.486;2023-04-06T06:44:23;6.80;55.80
78876;DHT22;68253;52.506;5.486;2023-04-06T06:46:50;7.10;55.80
78876;DHT22;68253;52.506;5.486;2023-04-06T06:49:19;7.40;55.70
78876;DHT22;68253;52.506;5.486;2023-04-06T06:51:46;7.60;55.40
78876;DHT22;68253;52.506;5.486;2023-04-06T06:54:12;7.80;55.00
78876;DHT22;68253;52.506;5.486;2023-04-06T06:56:39;8.00;54.60
78876;DHT22;68253;52.506;5.486;2023-04-06T06:59:06;8.00;54.50
78876;DHT22;68253;52.506;5.486;2023-04-06T07:01:32;8.00;54.60
78876;DHT22;68253;52.506;5.486;2023-04-06T07:03:59;8.00;54.60
78876;DHT22;68253;52.506;5.486;2023-04-06T07:06:26;8.00;54.60
78876;DHT22;68253;52.506;5.486;2023-04-06T07:08:52;7.90;54.70
78876;DHT22;68253;52.506;5.486;2023-04-06T07:11:18;7.90;54.40
78876;DHT22;68253;52.506;5.486;2023-04-06T07:13:44;7.80;54.30
78876;DHT22;68253;52.506;5.486;2023-04-06T07:16:11;7.80;54.40
78876;DHT22;68253;52.506;5.486;2023-04-06T07:18:37;7.80;54.50
78876;DHT22;68253;52.506;5.486;2023-04-06T07:21:04;7.80;54.40
78876;DHT22;68253;52.506;5.486;2023-04-06T07:23:30;7.80;54.40
78876;DHT22;68253;52.506;5.486;2023-04-06T07:25:56;8.00;54.60
78876;DHT22;68253;52.506;5.486;2023-04-06T07:28:22;8.10;54.20
78876;DHT22;68253;52.506;5.486;2023-04-06T07:30:48;8.20;54.00
78876;DHT22;68253;52.506;5.486;2023-04-06T07:33:15;8.30;53.90
78876;DHT22;68253;52.506;5.486;2023-04-06T07:35:41;8.40;53.90
78876;DHT22;68253;52.506;5.486;2023-04-06T07:38:08;8.60;53.80
78876;DHT22;68253;52.506;5.486;2023-04-06T07:40:35;8.60;53.40
78876;DHT22;68253;52.506;5.486;2023-04-06T07:43:01;8.70;53.40
78876;DHT22;68253;52.506;5.486;2023-04-06T07:45:28;8.70;53.40
78876;DHT22;68253;52.506;5.486;2023-04-06T07:47:55;8.80;53.60
78876;DHT22;68253;52.506;5.486;2023-04-06T07:50:25;8.80;53.50
78876;DHT22;68253;52.506;5.486;2023-04-06T07:52:51;8.80;53.50
78876;DHT22;68253;52.506;5.486;2023-04-06T07:55:18;8.80;53.70
78876;DHT22;68253;52.506;5.486;2023-04-06T07:57:44;8.70;53.30
78876;DHT22;68253;52.506;5.486;2023-04-06T08:00:10;8.60;53.50
78876;DHT22;68253;52.506;5.486;2023-04-06T08:02:40;8.60;53.70
78876;DHT22;68253;52.506;5.486;2023-04-06T08:05:06;8.60;53.80
78876;DHT22;68253;52.506;5.486;2023-04-06T08:07:33;8.60;53.80
78876;DHT22;68253;52.506;5.486;2023-04-06T08:09:59;8.60;53.80
78876;DHT22;68253;52.506;5.486;2023-04-06T08:12:25;8.60;53.60
78876;DHT22;68253;52.506;5.486;2023-04-06T08:14:51;8.50;53.90
78876;DHT22;68253;52.506;5.486;2023-04-06T08:17:17;8.60;54.10
78876;DHT22;68253;52.506;5.486;2023-04-06T08:19:44;8.60;54.20
78876;DHT22;68253;52.506;5.486;2023-04-06T08:22:11;8.60;54.20
78876;DHT22;68253;52.506;5.486;2023-04-06T08:24:37;8.70;54.30
78876;DHT22;68253;52.506;5.486;2023-04-06T08:27:03;8.80;54.50
78876;DHT22;68253;52.506;5.486;2023-04-06T08:29:29;8.80;54.50
78876;DHT22;68253;52.506;5.486;2023-04-06T08:31:55;8.90;54.40
78876;DHT22;68253;52.506;5.486;2023-04-06T08:34:22;8.90;54.50
78876;DHT22;68253;52.506;5.486;2023-04-06T08:36:48;9.00;54.60
78876;DHT22;68253;52.506;5.486;2023-04-06T08:39:15;9.00;54.40
78876;DHT22;68253;52.506;5.486;2023-04-06T08:41:44;9.10;54.20
78876;DHT22;68253;52.506;5.486;2023-04-06T08:44:10;9.00;54.30
78876;DHT22;68253;52.506;5.486;2023-04-06T08:46:37;9.10;54.30
78876;DHT22;68253;52.506;5.486;2023-04-06T08:49:03;9.10;54.50
78876;DHT22;68253;52.506;5.486;2023-04-06T08:51:32;9.20;54.60
78876;DHT22;68253;52.506;5.486;2023-04-06T08:53:59;9.20;54.20
78876;DHT22;68253;52.506;5.486;2023-04-06T08:56:28;9.40;54.10
78876;DHT22;68253;52.506;5.486;2023-04-06T08:58:55;9.40;54.10
78876;DHT22;68253;52.506;5.486;2023-04-06T09:01:25;9.40;54.30
78876;DHT22;68253;52.506;5.486;2023-04-06T09:03:56;9.30;54.40
78876;DHT22;68253;52.506;5.486;2023-04-06T09:06:24;9.40;54.40
78876;DHT22;68253;52.506;5.486;2023-04-06T09:08:50;9.40;54.50
78876;DHT22;68253;52.506;5.486;2023-04-06T09:11:16;9.40;54.60
78876;DHT22;68253;52.506;5.486;2023-04-06T09:13:51;9.40;54.70
78876;DHT22;68253;52.506;5.486;2023-04-06T09:16:17;9.50;54.80
78876;DHT22;68253;52.506;5.486;2023-04-06T09:18:44;9.50;54.80
78876;DHT22;68253;52.506;5.486;2023-04-06T09:21:11;9.60;54.60
78876;DHT22;68253;52.506;5.486;2023-04-06T09:23:38;9.80;54.70
78876;DHT22;68253;52.506;5.486;2023-04-06T09:26:15;9.90;54.60
78876;DHT22;68253;52.506;5.486;2023-04-06T09:31:14;10.10;54.30
78876;DHT22;68253;52.506;5.486;2023-04-06T09:33:42;10.20;54.40
78876;DHT22;68253;52.506;5.486;2023-04-06T09:36:08;10.30;54.20
78876;DHT22;68253;52.506;5.486;2023-04-06T09:38:38;10.40;54.30
78876;DHT22;68253;52.506;5.486;2023-04-06T09:41:05;10.60;54.30
78876;DHT22;68253;52.506;5.486;2023-04-06T09:43:31;10.70;54.10
78876;DHT22;68253;52.506;5.486;2023-04-06T09:46:00;10.90;53.90
78876;DHT22;68253;52.506;5.486;2023-04-06T09:48:27;11.10;53.40
78876;DHT22;68253;52.506;5.486;2023-04-06T09:50:59;11.30;53.30
78876;DHT22;68253;52.506;5.486;2023-04-06T09:53:30;11.40;53.40
78876;DHT22;68253;52.506;5.486;2023-04-06T09:55:59;11.40;53.10
78876;DHT22;68253;52.506;5.486;2023-04-06T09:58:33;11.30;53.20
78876;DHT22;68253;52.506;5.486;2023-04-06T10:01:10;11.20;53.30
78876;DHT22;68253;52.506;5.486;2023-04-06T10:03:52;11.10;53.50
78876;DHT22;68253;52.506;5.486;2023-04-06T10:06:23;11.00;53.50
78876;DHT22;68253;52.506;5.486;2023-04-06T10:08:50;10.90;53.50
78876;DHT22;68253;52.506;5.486;2023-04-06T10:11:18;10.70;53.90
78876;DHT22;68253;52.506;5.486;2023-04-06T10:13:45;10.60;54.30
78876;DHT22;68253;52.506;5.486;2023-04-06T10:16:14;10.50;54.70
78876;DHT22;68253;52.506;5.486;2023-04-06T10:18:44;10.50;54.70
78876;DHT22;68253;52.506;5.486;2023-04-06T10:21:15;10.50;55.10
78876;DHT22;68253;52.506;5.486;2023-04-06T10:23:54;10.60;55.10
78876;DHT22;68253;52.506;5.486;2023-04-06T10:26:21;10.60;55.40
78876;DHT22;68253;52.506;5.486;2023-04-06T10:28:49;10.70;55.40
78876;DHT22;68253;52.506;5.486;2023-04-06T10:31:24;10.70;55.50
78876;DHT22;68253;52.506;5.486;2023-04-06T10:34:00;10.80;55.70
78876;DHT22;68253;52.506;5.486;2023-04-06T10:36:31;10.80;55.90
78876;DHT22;68253;52.506;5.486;2023-04-06T10:38:59;10.90;56.10
78876;DHT22;68253;52.506;5.486;2023-04-06T10:41:44;11.00;56.20
78876;DHT22;68253;52.506;5.486;2023-04-06T10:44:23;11.00;56.20
78876;DHT22;68253;52.506;5.486;2023-04-06T10:46:56;11.00;56.50
78876;DHT22;68253;52.506;5.486;2023-04-06T10:49:24;11.00;56.60
78876;DHT22;68253;52.506;5.486;2023-04-06T10:51:54;10.90;56.60
78876;DHT22;68253;52.506;5.486;2023-04-06T10:54:22;10.90;56.70
78876;DHT22;68253;52.506;5.486;2023-04-06T10:56:49;10.90;56.80
78876;DHT22;68253;52.506;5.486;2023-04-06T10:59:22;10.80;57.20
78876;DHT22;68253;52.506;5.486;2023-04-06T11:01:49;10.90;57.40
78876;DHT22;68253;52.506;5.486;2023-04-06T11:04:16;11.00;57.20
78876;DHT22;68253;52.506;5.486;2023-04-06T11:06:47;11.00;57.10
78876;DHT22;68253;52.506;5.486;2023-04-06T11:09:24;11.00;57.20
78876;DHT22;68253;52.506;5.486;2023-04-06T11:11:52;11.00;57.40
78876;DHT22;68253;52.506;5.486;2023-04-06T11:14:18;11.10;58.00
78876;DHT22;68253;52.506;5.486;2023-04-06T11:16:47;11.30;58.10
78876;DHT22;68253;52.506;5.486;2023-04-06T11:19:17;11.40;58.30
78876;DHT22;68253;52.506;5.486;2023-04-06T11:21:48;11.50;58.10
78876;DHT22;68253;52.506;5.486;2023-04-06T11:24:15;11.50;58.30
78876;DHT22;68253;52.506;5.486;2023-04-06T11:26:47;11.50;58.40
78876;DHT22;68253;52.506;5.486;2023-04-06T11:29:19;11.50;58.50
78876;DHT22;68253;52.506;5.486;2023-04-06T11:31:48;11.40;58.90
78876;DHT22;68253;52.506;5.486;2023-04-06T11:34:22;11.30;59.20
78876;DHT22;68253;52.506;5.486;2023-04-06T11:36:58;11.10;59.80
78876;DHT22;68253;52.506;5.486;2023-04-06T11:39:26;11.00;60.40
78876;DHT22;68253;52.506;5.486;2023-04-06T11:41:57;10.90;60.80
78876;DHT22;68253;52.506;5.486;2023-04-06T11:44:42;10.80;61.30
78876;DHT22;68253;52.506;5.486;2023-04-06T11:47:12;10.70;61.90
78876;DHT22;68253;52.506;5.486;2023-04-06T11:49:40;10.60;61.60
78876;DHT22;68253;52.506;5.486;2023-04-06T11:52:27;10.40;62.50
78876;DHT22;68253;52.506;5.486;2023-04-06T11:54:54;10.20;63.40
78876;DHT22;68253;52.506;5.486;2023-04-06T11:57:21;10.00;64.30
78876;DHT22;68253;52.506;5.486;2023-04-06T11:59:51;10.00;64.40
78876;DHT22;68253;52.506;5.486;2023-04-06T12:02:18;9.80;64.20
78876;DHT22;68253;52.506;5.486;2023-04-06T12:04:45;9.70;64.60
78876;DHT22;68253;52.506;5.486;2023-04-06T12:07:12;9.70;64.80
78876;DHT22;68253;52.506;5.486;2023-04-06T12:09:38;9.60;64.80
78876;DHT22;68253;52.506;5.486;2023-04-06T12:12:04;9.50;65.20
78876;DHT22;68253;52.506;5.486;2023-04-06T12:14:30;9.40;65.10
78876;DHT22;68253;52.506;5.486;2023-04-06T12:16:57;9.40;65.70
78876;DHT22;68253;52.506;5.486;2023-04-06T12:19:23;9.30;66.60
78876;DHT22;68253;52.506;5.486;2023-04-06T12:21:54;9.30;66.00
78876;DHT22;68253;52.506;5.486;2023-04-06T12:24:20;9.20;66.50
78876;DHT22;68253;52.506;5.486;2023-04-06T12:26:46;9.20;66.70
78876;DHT22;68253;52.506;5.486;2023-04-06T12:29:13;9.20;66.60
78876;DHT22;68253;52.506;5.486;2023-04-06T12:31:39;9.20;66.90
78876;DHT22;68253;52.506;5.486;2023-04-06T12:34:06;9.20;67.10
78876;DHT22;68253;52.506;5.486;2023-04-06T12:36:33;9.20;67.30
78876;DHT22;68253;52.506;5.486;2023-04-06T12:39:00;9.10;67.70
78876;DHT22;68253;52.506;5.486;2023-04-06T12:41:29;9.00;68.10
78876;DHT22;68253;52.506;5.486;2023-04-06T12:43:55;9.00;68.00
78876;DHT22;68253;52.506;5.486;2023-04-06T12:46:22;9.00;68.00
78876;DHT22;68253;52.506;5.486;2023-04-06T12:48:48;8.90;68.20
78876;DHT22;68253;52.506;5.486;2023-04-06T12:51:15;8.90;67.70
78876;DHT22;68253;52.506;5.486;2023-04-06T12:53:41;8.90;67.70
78876;DHT22;68253;52.506;5.486;2023-04-06T12:56:12;8.90;67.60
78876;DHT22;68253;52.506;5.486;2023-04-06T12:58:39;9.00;68.10
78876;DHT22;68253;52.506;5.486;2023-04-06T13:01:07;9.10;67.00
78876;DHT22;68253;52.506;5.486;2023-04-06T13:03:34;9.00;66.90
78876;DHT22;68253;52.506;5.486;2023-04-06T13:06:01;9.00;67.50
78876;DHT22;68253;52.506;5.486;2023-04-06T13:08:27;9.00;67.10
78876;DHT22;68253;52.506;5.486;2023-04-06T13:10:54;9.00;67.00
78876;DHT22;68253;52.506;5.486;2023-04-06T13:13:30;8.90;67.20
78876;DHT22;68253;52.506;5.486;2023-04-06T13:16:02;8.90;67.80
78876;DHT22;68253;52.506;5.486;2023-04-06T13:18:29;8.90;67.80
78876;DHT22;68253;52.506;5.486;2023-04-06T13:20:57;8.80;67.40
78876;DHT22;68253;52.506;5.486;2023-04-06T13:23:23;8.60;68.00
78876;DHT22;68253;52.506;5.486;2023-04-06T13:26:00;8.60;68.90
78876;DHT22;68253;52.506;5.486;2023-04-06T13:28:26;8.60;69.10
78876;DHT22;68253;52.506;5.486;2023-04-06T13:30:53;8.60;69.40
78876;DHT22;68253;52.506;5.486;2023-04-06T13:33:20;8.60;69.20
78876;DHT22;68253;52.506;5.486;2023-04-06T13:35:46;8.60;69.30
78876;DHT22;68253;52.506;5.486;2023-04-06T13:38:13;8.60;68.70
78876;DHT22;68253;52.506;5.486;2023-04-06T13:40:40;8.60;69.00
78876;DHT22;68253;52.506;5.486;2023-04-06T13:43:06;8.60;69.20
78876;DHT22;68253;52.506;5.486;2023-04-06T13:45:33;8.50;69.40
78876;DHT22;68253;52.506;5.486;2023-04-06T13:47:59;8.50;69.60
78876;DHT22;68253;52.506;5.486;2023-04-06T13:50:26;8.50;69.90
78876;DHT22;68253;52.506;5.486;2023-04-06T13:52:53;8.50;69.90
78876;DHT22;68253;52.506;5.486;2023-04-06T13:55:19;8.40;69.90
78876;DHT22;68253;52.506;5.486;2023-04-06T13:57:45;8.40;70.00
78876;DHT22;68253;52.506;5.486;2023-04-06T14:00:12;8.40;70.40
78876;DHT22;68253;52.506;5.486;2023-04-06T14:02:40;8.40;70.50
78876;DHT22;68253;52.506;5.486;2023-04-06T14:05:06;8.40;70.90
78876;DHT22;68253;52.506;5.486;2023-04-06T14:07:32;8.40;71.00
78876;DHT22;68253;52.506;5.486;2023-04-06T14:09:59;8.30;71.20
78876;DHT22;68253;52.506;5.486;2023-04-06T14:12:25;8.30;71.30
78876;DHT22;68253;52.506;5.486;2023-04-06T14:14:53;8.30;71.50
78876;DHT22;68253;52.506;5.486;2023-04-06T14:17:19;8.30;71.60
78876;DHT22;68253;52.506;5.486;2023-04-06T14:19:45;8.30;71.70
78876;DHT22;68253;52.506;5.486;2023-04-06T14:22:11;8.20;71.60
78876;DHT22;68253;52.506;5.486;2023-04-06T14:24:37;8.20;71.80
78876;DHT22;68253;52.506;5.486;2023-04-06T14:27:03;8.20;72.00
78876;DHT22;68253;52.506;5.486;2023-04-06T14:29:30;8.10;72.20
78876;DHT22;68253;52.506;5.486;2023-04-06T14:31:56;8.20;72.30
78876;DHT22;68253;52.506;5.486;2023-04-06T14:34:29;8.10;72.30
78876;DHT22;68253;52.506;5.486;2023-04-06T14:36:55;8.10;72.30
78876;DHT22;68253;52.506;5.486;2023-04-06T14:39:21;8.10;72.60
78876;DHT22;68253;52.506;5.486;2023-04-06T14:41:47;8.10;72.60
78876;DHT22;68253;52.506;5.486;2023-04-06T14:44:17;8.00;72.90
78876;DHT22;68253;52.506;5.486;2023-04-06T14:46:43;8.10;73.00
78876;DHT22;68253;52.506;5.486;2023-04-06T14:49:09;8.00;72.90
78876;DHT22;68253;52.506;5.486;2023-04-06T14:51:35;8.00;73.00
78876;DHT22;68253;52.506;5.486;2023-04-06T14:54:01;8.00;73.10
78876;DHT22;68253;52.506;5.486;2023-04-06T14:56:30;8.00;73.40
78876;DHT22;68253;52.506;5.486;2023-04-06T14:59:00;8.00;73.60
78876;DHT22;68253;52.506;5.486;2023-04-06T15:01:33;8.00;73.20
78876;DHT22;68253;52.506;5.486;2023-04-06T15:03:59;8.00;73.40
78876;DHT22;68253;52.506;5.486;2023-04-06T15:06:25;8.00;73.60
78876;DHT22;68253;52.506;5.486;2023-04-06T15:08:53;8.00;73.50
78876;DHT22;68253;52.506;5.486;2023-04-06T15:11:19;8.00;73.50
78876;DHT22;68253;52.506;5.486;2023-04-06T15:13:45;8.00;73.50
78876;DHT22;68253;52.506;5.486;2023-04-06T15:16:12;8.00;73.90
78876;DHT22;68253;52.506;5.486;2023-04-06T15:18:40;8.00;73.90
78876;DHT22;68253;52.506;5.486;2023-04-06T15:21:06;7.90;73.60
78876;DHT22;68253;52.506;5.486;2023-04-06T15:23:33;7.90;73.80
78876;DHT22;68253;52.506;5.486;2023-04-06T15:26:01;7.90;74.00
78876;DHT22;68253;52.506;5.486;2023-04-06T15:28:29;7.80;74.00
78876;DHT22;68253;52.506;5.486;2023-04-06T15:30:56;7.80;74.00
78876;DHT22;68253;52.506;5.486;2023-04-06T15:33:23;7.80;74.10
78876;DHT22;68253;52.506;5.486;2023-04-06T15:35:49;7.80;74.00
78876;DHT22;68253;52.506;5.486;2023-04-06T15:38:15;7.80;74.00
78876;DHT22;68253;52.506;5.486;2023-04-06T15:40:46;7.80;73.90
78876;DHT22;68253;52.506;5.486;2023-04-06T15:43:13;7.80;73.90
78876;DHT22;68253;52.506;5.486;2023-04-06T15:45:40;7.80;73.80
78876;DHT22;68253;52.506;5.486;2023-04-06T15:48:07;7.80;73.70
78876;DHT22;68253;52.506;5.486;2023-04-06T15:50:33;7.80;73.90
78876;DHT22;68253;52.506;5.486;2023-04-06T15:53:00;7.80;74.10
78876;DHT22;68253;52.506;5.486;2023-04-06T15:55:26;7.80;74.00